sensor_id;sensor_type;location;lat;lon;timestamp;P1;durP1;ratioP1;P2;durP2;ratioP2
14100;SDS011;7127;49.372;8.166;2023-10-19T00:01:48;4.70;;;4.30;;
14100;SDS011;7127;49.372;8.166;2023-10-19T00:04:15;4.63;;;4.13;;
14100;SDS011;7127;49.372;8.166;2023-10-19T00:06:41;4.43;;;4.00;;
14100;SDS011;7127;49.372;8.166;2023-10-19T00:09:10;5.17;;;4.67;;
14100;SDS011;7127;49.372;8.166;2023-10-19T00:11:36;8.50;;;5.00;;
14100;SDS011;7127;49.372;8.166;2023-10-19T00:14:05;4.30;;;3.90;;
14100;SDS011;7127;49.372;8.166;2023-10-19T00:16:40;5.20;;;4.67;;
14100;SDS011;7127;49.372;8.166;2023-10-19T00:19:11;4.60;;;4.20;;
14100;SDS011;7127;49.372;8.166;2023-10-19T00:21:36;4.40;;;3.90;;
14100;SDS011;7127;49.372;8.166;2023-10-19T00:24:15;4.80;;;4.40;;
14100;SDS011;7127;49.372;8.166;2023-10-19T00:26:43;4.57;;;4.13;;
14100;SDS011;7127;49.372;8.166;2023-10-19T00:29:10;5.50;;;4.13;;
14100;SDS011;7127;49.372;8.166;2023-10-19T00:31:55;4.80;;;4.30;;
14100;SDS011;7127;49.372;8.166;2023-10-19T00:34:24;4.17;;;3.77;;
14100;SDS011;7127;49.372;8.166;2023-10-19T00:36:51;4.63;;;3.97;;
14100;SDS011;7127;49.372;8.166;2023-10-19T00:39:19;4.43;;;4.03;;
14100;SDS011;7127;49.372;8.166;2023-10-19T00:41:47;3.63;;;3.33;;
14100;SDS011;7127;49.372;8.166;2023-10-19T00:44:15;4.00;;;3.53;;
14100;SDS011;7127;49.372;8.166;2023-10-19T00:46:47;4.80;;;4.07;;
14100;SDS011;7127;49.372;8.166;2023-10-19T00:49:27;4.20;;;3.60;;
14100;SDS011;7127;49.372;8.166;2023-10-19T00:51:55;4.80;;;4.30;;
14100;SDS011;7127;49.372;8.166;2023-10-19T00:54:28;4.70;;;4.23;;
14100;SDS011;7127;49.372;8.166;2023-10-19T00:57:05;4.07;;;3.67;;
14100;SDS011;7127;49.372;8.166;2023-10-19T00:59:33;4.83;;;4.30;;
14100;SDS011;7127;49.372;8.166;2023-10-19T01:02:03;4.80;;;4.27;;
14100;SDS011;7127;49.372;8.166;2023-10-19T01:04:43;4.73;;;4.23;;
14100;SDS011;7127;49.372;8.166;2023-10-19T01:07:15;4.43;;;4.03;;
14100;SDS011;7127;49.372;8.166;2023-10-19T01:09:47;4.77;;;4.27;;
14100;SDS011;7127;49.372;8.166;2023-10-19T01:12:18;4.20;;;3.80;;
14100;SDS011;7127;49.372;8.166;2023-10-19T01:15:01;5.00;;;4.50;;
14100;SDS011;7127;49.372;8.166;2023-10-19T01:17:31;5.37;;;4.57;;
14100;SDS011;7127;49.372;8.166;2023-10-19T01:20:00;5.17;;;4.67;;
14100;SDS011;7127;49.372;8.166;2023-10-19T01:22:37;5.00;;;4.10;;
14100;SDS011;7127;49.372;8.166;2023-10-19T01:25:05;5.20;;;4.50;;
14100;SDS011;7127;49.372;8.166;2023-10-19T01:27:35;4.83;;;4.27;;
14100;SDS011;7127;49.372;8.166;2023-10-19T01:30:04;4.33;;;3.93;;
14100;SDS011;7127;49.372;8.166;2023-10-19T01:32:34;4.67;;;4.20;;
14100;SDS011;7127;49.372;8.166;2023-10-19T01:35:00;4.93;;;4.43;;
14100;SDS011;7127;49.372;8.166;2023-10-19T01:37:28;5.77;;;4.50;;
14100;SDS011;7127;49.372;8.166;2023-10-19T01:39:54;4.70;;;4.30;;
14100;SDS011;7127;49.372;8.166;2023-10-19T01:42:23;4.40;;;4.00;;
14100;SDS011;7127;49.372;8.166;2023-10-19T01:44:49;4.73;;;4.33;;
14100;SDS011;7127;49.372;8.166;2023-10-19T01:47:15;4.57;;;4.17;;
14100;SDS011;7127;49.372;8.166;2023-10-19T01:49:41;5.07;;;4.57;;
14100;SDS011;7127;49.372;8.166;2023-10-19T01:52:10;6.33;;;4.37;;
14100;SDS011;7127;49.372;8.166;2023-10-19T01:54:36;5.10;;;4.60;;
14100;SDS011;7127;49.372;8.166;2023-10-19T01:57:03;4.83;;;4.43;;
14100;SDS011;7127;49.372;8.166;2023-10-19T01:59:31;4.90;;;4.40;;
14100;SDS011;7127;49.372;8.166;2023-10-19T02:01:59;4.13;;;3.70;;
14100;SDS011;7127;49.372;8.166;2023-10-19T02:04:27;5.03;;;4.50;;
14100;SDS011;7127;49.372;8.166;2023-10-19T02:06:53;5.10;;;4.60;;
14100;SDS011;7127;49.372;8.166;2023-10-19T02:09:19;5.50;;;5.00;;
14100;SDS011;7127;49.372;8.166;2023-10-19T02:11:51;6.80;;;4.70;;
14100;SDS011;7127;49.372;8.166;2023-10-19T02:14:20;4.90;;;4.40;;
14100;SDS011;7127;49.372;8.166;2023-10-19T02:16:50;5.63;;;4.97;;
14100;SDS011;7127;49.372;8.166;2023-10-19T02:19:17;5.30;;;4.47;;
14100;SDS011;7127;49.372;8.166;2023-10-19T02:21:45;5.40;;;4.83;;
14100;SDS011;7127;49.372;8.166;2023-10-19T02:24:13;6.07;;;4.50;;
14100;SDS011;7127;49.372;8.166;2023-10-19T02:26:40;4.67;;;4.27;;
14100;SDS011;7127;49.372;8.166;2023-10-19T02:29:07;4.70;;;3.90;;
14100;SDS011;7127;49.372;8.166;2023-10-19T02:31:34;5.03;;;4.53;;
14100;SDS011;7127;49.372;8.166;2023-10-19T02:34:04;4.70;;;4.27;;
14100;SDS011;7127;49.372;8.166;2023-10-19T02:36:31;6.07;;;5.20;;
14100;SDS011;7127;49.372;8.166;2023-10-19T02:38:57;6.60;;;4.67;;
14100;SDS011;7127;49.372;8.166;2023-10-19T02:41:25;5.20;;;4.70;;
14100;SDS011;7127;49.372;8.166;2023-10-19T02:43:52;5.23;;;4.73;;
14100;SDS011;7127;49.372;8.166;2023-10-19T02:46:26;5.40;;;4.80;;
14100;SDS011;7127;49.372;8.166;2023-10-19T02:48:52;5.60;;;5.00;;
14100;SDS011;7127;49.372;8.166;2023-10-19T02:51:21;5.33;;;4.57;;
14100;SDS011;7127;49.372;8.166;2023-10-19T02:53:46;6.77;;;5.20;;
14100;SDS011;7127;49.372;8.166;2023-10-19T02:56:14;6.67;;;5.27;;
14100;SDS011;7127;49.372;8.166;2023-10-19T02:58:42;5.07;;;4.57;;
14100;SDS011;7127;49.372;8.166;2023-10-19T03:01:14;5.03;;;4.60;;
14100;SDS011;7127;49.372;8.166;2023-10-19T03:03:42;5.37;;;4.27;;
14100;SDS011;7127;49.372;8.166;2023-10-19T03:06:11;5.90;;;4.57;;
14100;SDS011;7127;49.372;8.166;2023-10-19T03:08:38;5.40;;;4.70;;
14100;SDS011;7127;49.372;8.166;2023-10-19T03:11:05;5.13;;;4.23;;
14100;SDS011;7127;49.372;8.166;2023-10-19T03:13:32;4.77;;;4.27;;
14100;SDS011;7127;49.372;8.166;2023-10-19T03:15:59;4.43;;;3.93;;
14100;SDS011;7127;49.372;8.166;2023-10-19T03:18:26;5.00;;;4.50;;
14100;SDS011;7127;49.372;8.166;2023-10-19T03:20:53;5.50;;;4.87;;
14100;SDS011;7127;49.372;8.166;2023-10-19T03:23:19;4.47;;;4.07;;
14100;SDS011;7127;49.372;8.166;2023-10-19T03:25:53;5.00;;;3.90;;
14100;SDS011;7127;49.372;8.166;2023-10-19T03:28:38;4.93;;;4.43;;
14100;SDS011;7127;49.372;8.166;2023-10-19T03:31:06;4.13;;;3.73;;
14100;SDS011;7127;49.372;8.166;2023-10-19T03:33:32;4.30;;;3.90;;
14100;SDS011;7127;49.372;8.166;2023-10-19T03:36:01;5.60;;;4.37;;
14100;SDS011;7127;49.372;8.166;2023-10-19T03:38:29;4.77;;;4.37;;
14100;SDS011;7127;49.372;8.166;2023-10-19T03:41:00;6.40;;;5.13;;
14100;SDS011;7127;49.372;8.166;2023-10-19T03:43:32;4.70;;;4.00;;
14100;SDS011;7127;49.372;8.166;2023-10-19T03:46:01;5.30;;;4.40;;
14100;SDS011;7127;49.372;8.166;2023-10-19T03:48:31;5.70;;;4.53;;
14100;SDS011;7127;49.372;8.166;2023-10-19T03:51:04;5.67;;;4.33;;
14100;SDS011;7127;49.372;8.166;2023-10-19T03:53:30;4.70;;;4.20;;
14100;SDS011;7127;49.372;8.166;2023-10-19T03:55:58;4.60;;;4.20;;
14100;SDS011;7127;49.372;8.166;2023-10-19T03:58:26;4.87;;;4.37;;
14100;SDS011;7127;49.372;8.166;2023-10-19T04:00:54;6.27;;;4.30;;
14100;SDS011;7127;49.372;8.166;2023-10-19T04:03:26;5.40;;;4.60;;
14100;SDS011;7127;49.372;8.166;2023-10-19T04:05:55;6.07;;;4.53;;
14100;SDS011;7127;49.372;8.166;2023-10-19T04:08:25;5.03;;;4.20;;
14100;SDS011;7127;49.372;8.166;2023-10-19T04:10:52;7.50;;;5.00;;
14100;SDS011;7127;49.372;8.166;2023-10-19T04:13:34;7.07;;;4.40;;
14100;SDS011;7127;49.372;8.166;2023-10-19T04:16:01;6.23;;;4.27;;
14100;SDS011;7127;49.372;8.166;2023-10-19T04:18:28;6.50;;;4.83;;
14100;SDS011;7127;49.372;8.166;2023-10-19T04:20:55;5.20;;;4.47;;
14100;SDS011;7127;49.372;8.166;2023-10-19T04:23:23;5.83;;;5.17;;
14100;SDS011;7127;49.372;8.166;2023-10-19T04:25:53;5.63;;;4.67;;
14100;SDS011;7127;49.372;8.166;2023-10-19T04:28:23;5.93;;;4.83;;
14100;SDS011;7127;49.372;8.166;2023-10-19T04:30:58;5.97;;;5.23;;
14100;SDS011;7127;49.372;8.166;2023-10-19T04:33:28;5.57;;;5.07;;
14100;SDS011;7127;49.372;8.166;2023-10-19T04:35:55;6.03;;;5.27;;
14100;SDS011;7127;49.372;8.166;2023-10-19T04:38:25;5.27;;;4.77;;
14100;SDS011;7127;49.372;8.166;2023-10-19T04:40:51;7.17;;;4.97;;
14100;SDS011;7127;49.372;8.166;2023-10-19T04:43:18;7.57;;;5.57;;
14100;SDS011;7127;49.372;8.166;2023-10-19T04:45:46;8.90;;;5.43;;
14100;SDS011;7127;49.372;8.166;2023-10-19T04:48:14;6.40;;;5.13;;
14100;SDS011;7127;49.372;8.166;2023-10-19T04:50:41;5.03;;;4.53;;
14100;SDS011;7127;49.372;8.166;2023-10-19T04:53:08;7.23;;;5.73;;
14100;SDS011;7127;49.372;8.166;2023-10-19T04:55:34;6.90;;;5.77;;
14100;SDS011;7127;49.372;8.166;2023-10-19T04:58:01;6.93;;;5.17;;
14100;SDS011;7127;49.372;8.166;2023-10-19T05:00:28;8.17;;;5.73;;
14100;SDS011;7127;49.372;8.166;2023-10-19T05:02:55;6.07;;;5.47;;
14100;SDS011;7127;49.372;8.166;2023-10-19T05:05:23;9.50;;;6.10;;
14100;SDS011;7127;49.372;8.166;2023-10-19T05:07:50;7.70;;;5.40;;
14100;SDS011;7127;49.372;8.166;2023-10-19T05:10:17;7.03;;;5.70;;
14100;SDS011;7127;49.372;8.166;2023-10-19T05:12:44;7.13;;;5.23;;
14100;SDS011;7127;49.372;8.166;2023-10-19T05:15:11;5.60;;;4.87;;
14100;SDS011;7127;49.372;8.166;2023-10-19T05:17:38;8.27;;;5.50;;
14100;SDS011;7127;49.372;8.166;2023-10-19T05:20:05;6.17;;;5.47;;
14100;SDS011;7127;49.372;8.166;2023-10-19T05:22:34;6.37;;;5.30;;
14100;SDS011;7127;49.372;8.166;2023-10-19T05:25:01;6.23;;;5.63;;
14100;SDS011;7127;49.372;8.166;2023-10-19T05:27:28;8.13;;;5.57;;
14100;SDS011;7127;49.372;8.166;2023-10-19T05:29:55;6.23;;;5.47;;
14100;SDS011;7127;49.372;8.166;2023-10-19T05:32:22;9.17;;;5.27;;
14100;SDS011;7127;49.372;8.166;2023-10-19T05:34:49;6.33;;;5.40;;
14100;SDS011;7127;49.372;8.166;2023-10-19T05:37:16;8.67;;;5.27;;
14100;SDS011;7127;49.372;8.166;2023-10-19T05:39:45;7.33;;;5.47;;
14100;SDS011;7127;49.372;8.166;2023-10-19T05:42:11;6.13;;;5.30;;
14100;SDS011;7127;49.372;8.166;2023-10-19T05:44:38;7.50;;;5.80;;
14100;SDS011;7127;49.372;8.166;2023-10-19T05:47:05;10.30;;;5.47;;
14100;SDS011;7127;49.372;8.166;2023-10-19T05:49:32;8.27;;;5.63;;
14100;SDS011;7127;49.372;8.166;2023-10-19T05:51:59;21.83;;;6.67;;
14100;SDS011;7127;49.372;8.166;2023-10-19T05:54:28;7.80;;;4.93;;
14100;SDS011;7127;49.372;8.166;2023-10-19T05:56:56;7.00;;;5.00;;
14100;SDS011;7127;49.372;8.166;2023-10-19T05:59:23;5.87;;;4.70;;
14100;SDS011;7127;49.372;8.166;2023-10-19T06:01:51;9.13;;;4.73;;
14100;SDS011;7127;49.372;8.166;2023-10-19T06:04:18;8.93;;;4.73;;
14100;SDS011;7127;49.372;8.166;2023-10-19T06:06:45;8.63;;;5.17;;
14100;SDS011;7127;49.372;8.166;2023-10-19T06:09:12;6.07;;;5.43;;
14100;SDS011;7127;49.372;8.166;2023-10-19T06:11:40;7.73;;;5.57;;
14100;SDS011;7127;49.372;8.166;2023-10-19T06:14:09;6.70;;;4.93;;
14100;SDS011;7127;49.372;8.166;2023-10-19T06:16:36;9.87;;;4.73;;
14100;SDS011;7127;49.372;8.166;2023-10-19T06:19:03;9.60;;;4.87;;
14100;SDS011;7127;49.372;8.166;2023-10-19T06:21:30;9.70;;;4.40;;
14100;SDS011;7127;49.372;8.166;2023-10-19T06:23:58;6.20;;;4.90;;
14100;SDS011;7127;49.372;8.166;2023-10-19T06:26:25;6.87;;;4.37;;
14100;SDS011;7127;49.372;8.166;2023-10-19T06:28:52;6.53;;;4.83;;
14100;SDS011;7127;49.372;8.166;2023-10-19T06:31:25;8.57;;;5.00;;
14100;SDS011;7127;49.372;8.166;2023-10-19T06:33:53;8.50;;;5.00;;
14100;SDS011;7127;49.372;8.166;2023-10-19T06:36:21;12.37;;;4.60;;
14100;SDS011;7127;49.372;8.166;2023-10-19T06:38:48;5.53;;;4.27;;
14100;SDS011;7127;49.372;8.166;2023-10-19T06:41:16;6.40;;;4.73;;
14100;SDS011;7127;49.372;8.166;2023-10-19T06:43:43;4.93;;;4.43;;
14100;SDS011;7127;49.372;8.166;2023-10-19T06:46:10;9.67;;;4.50;;
14100;SDS011;7127;49.372;8.166;2023-10-19T06:48:39;4.77;;;4.30;;
14100;SDS011;7127;49.372;8.166;2023-10-19T06:51:05;6.47;;;3.87;;
14100;SDS011;7127;49.372;8.166;2023-10-19T06:53:32;6.07;;;3.93;;
14100;SDS011;7127;49.372;8.166;2023-10-19T06:55:59;8.27;;;4.63;;
14100;SDS011;7127;49.372;8.166;2023-10-19T06:58:26;6.10;;;4.83;;
14100;SDS011;7127;49.372;8.166;2023-10-19T07:00:53;9.77;;;5.17;;
14100;SDS011;7127;49.372;8.166;2023-10-19T07:03:24;5.60;;;4.97;;
14100;SDS011;7127;49.372;8.166;2023-10-19T07:05:54;7.73;;;4.87;;
14100;SDS011;7127;49.372;8.166;2023-10-19T07:08:23;6.80;;;5.20;;
14100;SDS011;7127;49.372;8.166;2023-10-19T07:10:52;5.27;;;4.53;;
14100;SDS011;7127;49.372;8.166;2023-10-19T07:13:18;12.43;;;4.60;;
14100;SDS011;7127;49.372;8.166;2023-10-19T07:15:46;4.90;;;4.40;;
14100;SDS011;7127;49.372;8.166;2023-10-19T07:18:14;4.93;;;4.30;;
14100;SDS011;7127;49.372;8.166;2023-10-19T07:20:41;5.27;;;4.33;;
14100;SDS011;7127;49.372;8.166;2023-10-19T07:23:09;4.53;;;4.13;;
14100;SDS011;7127;49.372;8.166;2023-10-19T07:25:43;5.80;;;4.03;;
14100;SDS011;7127;49.372;8.166;2023-10-19T07:28:10;5.13;;;4.23;;
14100;SDS011;7127;49.372;8.166;2023-10-19T07:30:38;7.10;;;4.17;;
14100;SDS011;7127;49.372;8.166;2023-10-19T07:33:06;4.27;;;3.87;;
14100;SDS011;7127;49.372;8.166;2023-10-19T07:35:35;6.80;;;4.03;;
14100;SDS011;7127;49.372;8.166;2023-10-19T07:38:02;6.13;;;4.20;;
14100;SDS011;7127;49.372;8.166;2023-10-19T07:40:33;4.90;;;4.20;;
14100;SDS011;7127;49.372;8.166;2023-10-19T07:43:01;5.63;;;4.73;;
14100;SDS011;7127;49.372;8.166;2023-10-19T07:45:28;4.90;;;4.40;;
14100;SDS011;7127;49.372;8.166;2023-10-19T07:47:56;6.33;;;4.33;;
14100;SDS011;7127;49.372;8.166;2023-10-19T07:50:31;5.17;;;4.23;;
14100;SDS011;7127;49.372;8.166;2023-10-19T07:52:57;8.87;;;4.33;;
14100;SDS011;7127;49.372;8.166;2023-10-19T07:55:24;7.07;;;4.53;;
14100;SDS011;7127;49.372;8.166;2023-10-19T07:57:52;6.53;;;4.60;;
14100;SDS011;7127;49.372;8.166;2023-10-19T08:00:20;5.97;;;4.73;;
14100;SDS011;7127;49.372;8.166;2023-10-19T08:02:48;4.87;;;4.37;;
14100;SDS011;7127;49.372;8.166;2023-10-19T08:05:16;4.57;;;4.00;;
14100;SDS011;7127;49.372;8.166;2023-10-19T08:07:44;4.83;;;4.33;;
14100;SDS011;7127;49.372;8.166;2023-10-19T08:10:12;5.10;;;4.60;;
14100;SDS011;7127;49.372;8.166;2023-10-19T08:12:40;5.33;;;4.83;;
14100;SDS011;7127;49.372;8.166;2023-10-19T08:15:10;5.47;;;4.83;;
14100;SDS011;7127;49.372;8.166;2023-10-19T08:17:39;4.97;;;4.23;;
14100;SDS011;7127;49.372;8.166;2023-10-19T08:20:06;4.90;;;4.37;;
14100;SDS011;7127;49.372;8.166;2023-10-19T08:22:34;5.13;;;4.63;;
14100;SDS011;7127;49.372;8.166;2023-10-19T08:25:02;5.03;;;4.53;;
14100;SDS011;7127;49.372;8.166;2023-10-19T08:27:36;5.97;;;5.03;;
14100;SDS011;7127;49.372;8.166;2023-10-19T08:30:04;5.97;;;5.17;;
14100;SDS011;7127;49.372;8.166;2023-10-19T08:32:35;4.70;;;4.27;;
14100;SDS011;7127;49.372;8.166;2023-10-19T08:35:01;6.37;;;4.70;;
14100;SDS011;7127;49.372;8.166;2023-10-19T08:37:29;5.60;;;4.90;;
14100;SDS011;7127;49.372;8.166;2023-10-19T08:39:56;4.93;;;4.43;;
14100;SDS011;7127;49.372;8.166;2023-10-19T08:42:24;5.27;;;4.43;;
14100;SDS011;7127;49.372;8.166;2023-10-19T08:44:50;5.83;;;4.83;;
14100;SDS011;7127;49.372;8.166;2023-10-19T08:47:19;5.40;;;4.87;;
14100;SDS011;7127;49.372;8.166;2023-10-19T08:49:51;5.27;;;4.53;;
14100;SDS011;7127;49.372;8.166;2023-10-19T08:52:19;6.60;;;4.83;;
14100;SDS011;7127;49.372;8.166;2023-10-19T08:54:48;5.27;;;4.77;;
14100;SDS011;7127;49.372;8.166;2023-10-19T08:57:15;5.13;;;4.13;;
14100;SDS011;7127;49.372;8.166;2023-10-19T08:59:43;4.40;;;4.00;;
14100;SDS011;7127;49.372;8.166;2023-10-19T09:02:11;5.03;;;4.07;;
14100;SDS011;7127;49.372;8.166;2023-10-19T09:04:41;5.33;;;4.83;;
14100;SDS011;7127;49.372;8.166;2023-10-19T09:07:11;4.60;;;4.00;;
14100;SDS011;7127;49.372;8.166;2023-10-19T09:09:37;4.60;;;4.03;;
14100;SDS011;7127;49.372;8.166;2023-10-19T09:12:06;4.97;;;4.37;;
14100;SDS011;7127;49.372;8.166;2023-10-19T09:14:35;5.80;;;4.60;;
14100;SDS011;7127;49.372;8.166;2023-10-19T09:17:06;12.03;;;5.10;;
14100;SDS011;7127;49.372;8.166;2023-10-19T09:19:37;5.10;;;4.47;;
14100;SDS011;7127;49.372;8.166;2023-10-19T09:22:04;6.63;;;5.27;;
14100;SDS011;7127;49.372;8.166;2023-10-19T09:24:42;6.73;;;5.17;;
14100;SDS011;7127;49.372;8.166;2023-10-19T09:27:10;8.70;;;6.37;;
14100;SDS011;7127;49.372;8.166;2023-10-19T09:29:37;9.93;;;7.17;;
14100;SDS011;7127;49.372;8.166;2023-10-19T09:32:04;10.23;;;7.03;;
14100;SDS011;7127;49.372;8.166;2023-10-19T09:34:33;8.37;;;5.77;;
14100;SDS011;7127;49.372;8.166;2023-10-19T09:37:01;8.83;;;6.37;;
14100;SDS011;7127;49.372;8.166;2023-10-19T09:39:28;7.70;;;6.33;;
14100;SDS011;7127;49.372;8.166;2023-10-19T09:42:01;8.10;;;5.27;;
14100;SDS011;7127;49.372;8.166;2023-10-19T09:44:30;5.57;;;4.97;;
14100;SDS011;7127;49.372;8.166;2023-10-19T09:47:05;7.60;;;5.00;;
14100;SDS011;7127;49.372;8.166;2023-10-19T09:49:37;4.70;;;4.30;;
14100;SDS011;7127;49.372;8.166;2023-10-19T09:52:05;5.00;;;4.50;;
14100;SDS011;7127;49.372;8.166;2023-10-19T09:54:34;5.40;;;4.90;;
14100;SDS011;7127;49.372;8.166;2023-10-19T09:57:14;5.27;;;4.40;;
14100;SDS011;7127;49.372;8.166;2023-10-19T09:59:46;4.77;;;4.27;;
14100;SDS011;7127;49.372;8.166;2023-10-19T10:02:17;4.63;;;4.00;;
14100;SDS011;7127;49.372;8.166;2023-10-19T10:04:47;4.70;;;3.80;;
14100;SDS011;7127;49.372;8.166;2023-10-19T10:07:14;4.87;;;4.00;;
14100;SDS011;7127;49.372;8.166;2023-10-19T10:09:42;4.40;;;4.00;;
14100;SDS011;7127;49.372;8.166;2023-10-19T10:12:18;5.00;;;4.50;;
14100;SDS011;7127;49.372;8.166;2023-10-19T10:14:59;4.70;;;4.03;;
14100;SDS011;7127;49.372;8.166;2023-10-19T10:17:28;4.27;;;3.87;;
14100;SDS011;7127;49.372;8.166;2023-10-19T10:25:51;4.70;;;4.30;;
14100;SDS011;7127;49.372;8.166;2023-10-19T10:28:20;4.17;;;3.77;;
14100;SDS011;7127;49.372;8.166;2023-10-19T10:31:12;4.40;;;4.00;;
14100;SDS011;7127;49.372;8.166;2023-10-19T10:33:41;4.77;;;4.37;;
14100;SDS011;7127;49.372;8.166;2023-10-19T10:36:12;3.97;;;3.53;;
14100;SDS011;7127;49.372;8.166;2023-10-19T10:38:40;4.50;;;3.77;;
14100;SDS011;7127;49.372;8.166;2023-10-19T10:41:07;4.00;;;3.60;;
14100;SDS011;7127;49.372;8.166;2023-10-19T10:43:48;4.00;;;3.60;;
14100;SDS011;7127;49.372;8.166;2023-10-19T10:46:20;3.97;;;3.63;;
14100;SDS011;7127;49.372;8.166;2023-10-19T10:48:47;4.20;;;3.80;;
14100;SDS011;7127;49.372;8.166;2023-10-19T10:51:15;4.50;;;4.10;;
14100;SDS011;7127;49.372;8.166;2023-10-19T10:53:42;5.30;;;3.80;;
14100;SDS011;7127;49.372;8.166;2023-10-19T10:56:09;4.80;;;4.30;;
14100;SDS011;7127;49.372;8.166;2023-10-19T10:58:37;5.13;;;4.63;;
14100;SDS011;7127;49.372;8.166;2023-10-19T11:01:05;4.73;;;4.33;;
14100;SDS011;7127;49.372;8.166;2023-10-19T11:03:32;5.23;;;4.67;;
14100;SDS011;7127;49.372;8.166;2023-10-19T11:06:02;4.90;;;4.40;;
14100;SDS011;7127;49.372;8.166;2023-10-19T11:08:30;5.10;;;4.60;;
14100;SDS011;7127;49.372;8.166;2023-10-19T11:11:01;4.90;;;4.40;;
14100;SDS011;7127;49.372;8.166;2023-10-19T11:13:30;4.50;;;4.10;;
14100;SDS011;7127;49.372;8.166;2023-10-19T11:15:58;4.63;;;4.13;;
14100;SDS011;7127;49.372;8.166;2023-10-19T11:18:31;5.13;;;4.67;;
14100;SDS011;7127;49.372;8.166;2023-10-19T11:21:00;4.40;;;4.00;;
14100;SDS011;7127;49.372;8.166;2023-10-19T11:23:40;4.63;;;4.17;;
14100;SDS011;7127;49.372;8.166;2023-10-19T11:26:08;4.90;;;4.47;;
14100;SDS011;7127;49.372;8.166;2023-10-19T11:28:36;5.00;;;4.50;;
14100;SDS011;7127;49.372;8.166;2023-10-19T11:31:17;5.10;;;4.60;;
14100;SDS011;7127;49.372;8.166;2023-10-19T11:33:46;4.70;;;4.27;;
14100;SDS011;7127;49.372;8.166;2023-10-19T11:36:14;5.43;;;4.93;;
14100;SDS011;7127;49.372;8.166;2023-10-19T11:38:42;5.73;;;5.13;;
14100;SDS011;7127;49.372;8.166;2023-10-19T11:41:10;5.60;;;5.03;;
14100;SDS011;7127;49.372;8.166;2023-10-19T11:43:38;5.77;;;4.77;;
14100;SDS011;7127;49.372;8.166;2023-10-19T11:46:06;4.93;;;4.43;;
14100;SDS011;7127;49.372;8.166;2023-10-19T11:48:33;5.43;;;4.93;;
14100;SDS011;7127;49.372;8.166;2023-10-19T11:51:03;5.50;;;4.50;;
14100;SDS011;7127;49.372;8.166;2023-10-19T11:53:34;5.87;;;5.13;;
14100;SDS011;7127;49.372;8.166;2023-10-19T11:56:02;6.00;;;5.37;;
14100;SDS011;7127;49.372;8.166;2023-10-19T11:58:31;4.93;;;4.43;;
14100;SDS011;7127;49.372;8.166;2023-10-19T12:00:59;5.93;;;5.33;;
14100;SDS011;7127;49.372;8.166;2023-10-19T12:03:26;5.90;;;5.23;;
14100;SDS011;7127;49.372;8.166;2023-10-19T12:05:53;7.93;;;5.67;;
14100;SDS011;7127;49.372;8.166;2023-10-19T12:08:21;5.90;;;5.30;;
14100;SDS011;7127;49.372;8.166;2023-10-19T12:10:49;6.93;;;5.40;;
14100;SDS011;7127;49.372;8.166;2023-10-19T12:13:17;5.60;;;5.10;;
14100;SDS011;7127;49.372;8.166;2023-10-19T12:15:43;5.63;;;5.10;;
14100;SDS011;7127;49.372;8.166;2023-10-19T12:18:16;6.30;;;4.90;;
14100;SDS011;7127;49.372;8.166;2023-10-19T12:20:44;5.23;;;4.73;;
14100;SDS011;7127;49.372;8.166;2023-10-19T12:23:11;5.00;;;4.50;;
14100;SDS011;7127;49.372;8.166;2023-10-19T12:25:39;4.50;;;4.07;;
14100;SDS011;7127;49.372;8.166;2023-10-19T12:28:07;4.23;;;3.83;;
14100;SDS011;7127;49.372;8.166;2023-10-19T12:30:38;5.63;;;4.43;;
14100;SDS011;7127;49.372;8.166;2023-10-19T12:33:06;4.87;;;4.37;;
14100;SDS011;7127;49.372;8.166;2023-10-19T12:35:36;4.50;;;4.10;;
14100;SDS011;7127;49.372;8.166;2023-10-19T12:38:10;4.70;;;4.30;;
14100;SDS011;7127;49.372;8.166;2023-10-19T12:40:43;5.77;;;4.53;;
14100;SDS011;7127;49.372;8.166;2023-10-19T12:43:11;4.93;;;4.47;;
14100;SDS011;7127;49.372;8.166;2023-10-19T12:45:39;4.97;;;4.47;;
14100;SDS011;7127;49.372;8.166;2023-10-19T12:48:06;5.70;;;5.20;;
14100;SDS011;7127;49.372;8.166;2023-10-19T12:50:36;4.77;;;4.37;;
14100;SDS011;7127;49.372;8.166;2023-10-19T12:53:03;4.90;;;4.40;;
14100;SDS011;7127;49.372;8.166;2023-10-19T12:55:31;6.03;;;4.87;;
14100;SDS011;7127;49.372;8.166;2023-10-19T12:57:59;5.37;;;4.87;;
14100;SDS011;7127;49.372;8.166;2023-10-19T13:00:32;5.80;;;4.90;;
14100;SDS011;7127;49.372;8.166;2023-10-19T13:03:06;5.13;;;4.63;;
14100;SDS011;7127;49.372;8.166;2023-10-19T13:05:33;5.53;;;5.03;;
14100;SDS011;7127;49.372;8.166;2023-10-19T13:08:00;5.30;;;4.80;;
14100;SDS011;7127;49.372;8.166;2023-10-19T13:10:28;5.50;;;4.93;;
14100;SDS011;7127;49.372;8.166;2023-10-19T13:12:57;5.83;;;5.23;;
14100;SDS011;7127;49.372;8.166;2023-10-19T13:15:28;5.50;;;4.77;;
14100;SDS011;7127;49.372;8.166;2023-10-19T13:17:56;5.07;;;4.53;;
14100;SDS011;7127;49.372;8.166;2023-10-19T13:20:24;6.20;;;4.80;;
14100;SDS011;7127;49.372;8.166;2023-10-19T13:22:51;6.80;;;4.57;;
14100;SDS011;7127;49.372;8.166;2023-10-19T13:25:18;5.23;;;4.73;;
14100;SDS011;7127;49.372;8.166;2023-10-19T13:28:05;5.33;;;4.73;;
14100;SDS011;7127;49.372;8.166;2023-10-19T13:30:37;5.40;;;4.57;;
14100;SDS011;7127;49.372;8.166;2023-10-19T13:33:08;4.93;;;4.40;;
14100;SDS011;7127;49.372;8.166;2023-10-19T13:35:35;4.87;;;4.37;;
14100;SDS011;7127;49.372;8.166;2023-10-19T13:38:03;5.53;;;4.63;;
14100;SDS011;7127;49.372;8.166;2023-10-19T13:40:31;4.80;;;4.30;;
14100;SDS011;7127;49.372;8.166;2023-10-19T13:42:58;5.17;;;4.63;;
14100;SDS011;7127;49.372;8.166;2023-10-19T13:45:26;5.37;;;4.30;;
14100;SDS011;7127;49.372;8.166;2023-10-19T13:47:53;6.07;;;4.30;;
14100;SDS011;7127;49.372;8.166;2023-10-19T13:50:22;5.40;;;4.50;;
14100;SDS011;7127;49.372;8.166;2023-10-19T13:52:49;4.93;;;4.53;;
14100;SDS011;7127;49.372;8.166;2023-10-19T13:55:17;5.17;;;4.67;;
14100;SDS011;7127;49.372;8.166;2023-10-19T13:57:45;4.70;;;4.30;;
14100;SDS011;7127;49.372;8.166;2023-10-19T14:00:13;5.23;;;4.30;;
14100;SDS011;7127;49.372;8.166;2023-10-19T14:02:46;4.50;;;4.10;;
14100;SDS011;7127;49.372;8.166;2023-10-19T14:05:12;4.90;;;4.40;;
14100;SDS011;7127;49.372;8.166;2023-10-19T14:07:40;4.87;;;4.10;;
14100;SDS011;7127;49.372;8.166;2023-10-19T14:10:08;3.93;;;3.53;;
14100;SDS011;7127;49.372;8.166;2023-10-19T14:12:37;4.93;;;4.27;;
14100;SDS011;7127;49.372;8.166;2023-10-19T14:15:08;5.30;;;4.07;;
14100;SDS011;7127;49.372;8.166;2023-10-19T14:17:38;5.43;;;4.90;;
14100;SDS011;7127;49.372;8.166;2023-10-19T14:20:07;4.73;;;4.23;;
14100;SDS011;7127;49.372;8.166;2023-10-19T14:22:38;4.67;;;4.27;;
14100;SDS011;7127;49.372;8.166;2023-10-19T14:25:08;4.40;;;4.00;;
14100;SDS011;7127;49.372;8.166;2023-10-19T14:27:41;5.80;;;4.33;;
14100;SDS011;7127;49.372;8.166;2023-10-19T14:30:09;4.30;;;3.90;;
14100;SDS011;7127;49.372;8.166;2023-10-19T14:32:39;4.70;;;3.60;;
14100;SDS011;7127;49.372;8.166;2023-10-19T14:35:08;4.30;;;3.53;;
14100;SDS011;7127;49.372;8.166;2023-10-19T14:37:38;4.03;;;3.17;;
14100;SDS011;7127;49.372;8.166;2023-10-19T14:40:08;3.33;;;3.03;;
14100;SDS011;7127;49.372;8.166;2023-10-19T14:42:37;3.70;;;3.40;;
14100;SDS011;7127;49.372;8.166;2023-10-19T14:45:05;3.43;;;3.13;;
14100;SDS011;7127;49.372;8.166;2023-10-19T14:47:35;3.93;;;3.27;;
14100;SDS011;7127;49.372;8.166;2023-10-19T14:50:03;3.53;;;3.10;;
14100;SDS011;7127;49.372;8.166;2023-10-19T14:52:32;3.77;;;3.47;;
14100;SDS011;7127;49.372;8.166;2023-10-19T14:54:59;3.47;;;3.00;;
14100;SDS011;7127;49.372;8.166;2023-10-19T14:57:26;3.37;;;3.07;;
14100;SDS011;7127;49.372;8.166;2023-10-19T14:59:53;3.13;;;2.90;;
14100;SDS011;7127;49.372;8.166;2023-10-19T15:02:19;3.40;;;3.10;;
14100;SDS011;7127;49.372;8.166;2023-10-19T15:04:48;3.43;;;3.07;;
14100;SDS011;7127;49.372;8.166;2023-10-19T15:07:15;3.40;;;3.10;;
14100;SDS011;7127;49.372;8.166;2023-10-19T15:09:44;3.10;;;2.80;;
14100;SDS011;7127;49.372;8.166;2023-10-19T15:12:12;3.93;;;3.20;;
14100;SDS011;7127;49.372;8.166;2023-10-19T15:14:39;3.30;;;2.90;;
14100;SDS011;7127;49.372;8.166;2023-10-19T15:17:08;3.33;;;2.60;;